sensor_id;sensor_type;location;lat;lon;timestamp;temperature;humidity
47921;DHT22;33686;48.770;9.186;2023-06-14T04:14:02;13.40;99.90
47921;DHT22;33686;48.770;9.186;2023-06-14T04:16:29;13.50;99.90
47921;DHT22;33686;48.770;9.186;2023-06-14T04:18:55;13.60;99.90
47921;DHT22;33686;48.770;9.186;2023-06-14T04:21:21;13.80;99.90
47921;DHT22;33686;48.770;9.186;2023-06-14T04:23:50;14.60;99.90
47921;DHT22;33686;48.770;9.186;2023-06-14T04:26:18;15.30;99.90
47921;DHT22;33686;48.770;9.186;2023-06-14T04:28:45;16.00;98.90
47921;DHT22;33686;48.770;9.186;2023-06-14T04:31:12;16.60;97.60
47921;DHT22;33686;48.770;9.186;2023-06-14T04:33:38;17.00;96.70
47921;DHT22;33686;48.770;9.186;2023-06-14T04:36:15;17.60;96.10
47921;DHT22;33686;48.770;9.186;2023-06-14T04:38:45;17.60;95.60
47921;DHT22;33686;48.770;9.186;2023-06-14T04:41:12;17.90;95.40
47921;DHT22;33686;48.770;9.186;2023-06-14T04:43:38;18.20;95.30
47921;DHT22;33686;48.770;9.186;2023-06-14T04:46:06;18.70;94.60
47921;DHT22;33686;48.770;9.186;2023-06-14T04:48:36;19.30;94.20
47921;DHT22;33686;48.770;9.186;2023-06-14T04:51:03;19.20;93.40
47921;DHT22;33686;48.770;9.186;2023-06-14T04:53:29;19.10;94.00
47921;DHT22;33686;48.770;9.186;2023-06-14T04:55:55;19.50;93.40
47921;DHT22;33686;48.770;9.186;2023-06-14T04:58:21;19.60;93.00
47921;DHT22;33686;48.770;9.186;2023-06-14T05:00:47;19.80;92.80
47921;DHT22;33686;48.770;9.186;2023-06-14T05:03:13;20.60;91.80
47921;DHT22;33686;48.770;9.186;2023-06-14T05:05:40;21.30;90.70
47921;DHT22;33686;48.770;9.186;2023-06-14T05:08:06;21.40;90.30
47921;DHT22;33686;48.770;9.186;2023-06-14T05:10:31;21.80;88.80
47921;DHT22;33686;48.770;9.186;2023-06-14T05:12:57;21.70;88.00
47921;DHT22;33686;48.770;9.186;2023-06-14T05:15:23;22.70;86.70
47921;DHT22;33686;48.770;9.186;2023-06-14T05:17:51;22.80;85.80
47921;DHT22;33686;48.770;9.186;2023-06-14T05:20:21;22.70;86.50
47921;DHT22;33686;48.770;9.186;2023-06-14T05:22:48;22.70;86.00
47921;DHT22;33686;48.770;9.186;2023-06-14T05:25:15;23.00;85.80
47921;DHT22;33686;48.770;9.186;2023-06-14T05:27:40;22.50;86.80
47921;DHT22;33686;48.770;9.186;2023-06-14T05:30:07;22.90;85.60
47921;DHT22;33686;48.770;9.186;2023-06-14T05:32:33;23.20;85.60
47921;DHT22;33686;48.770;9.186;2023-06-14T05:34:59;22.90;85.10
47921;DHT22;33686;48.770;9.186;2023-06-14T05:37:25;22.50;85.30
47921;DHT22;33686;48.770;9.186;2023-06-14T05:39:50;22.40;84.90
47921;DHT22;33686;48.770;9.186;2023-06-14T05:42:16;23.00;84.80
47921;DHT22;33686;48.770;9.186;2023-06-14T05:44:41;23.10;84.10
47921;DHT22;33686;48.770;9.186;2023-06-14T05:47:07;23.40;83.80
47921;DHT22;33686;48.770;9.186;2023-06-14T05:49:32;23.50;83.30
47921;DHT22;33686;48.770;9.186;2023-06-14T05:51:58;23.70;82.70
47921;DHT22;33686;48.770;9.186;2023-06-14T05:54:23;24.00;82.40
47921;DHT22;33686;48.770;9.186;2023-06-14T05:56:49;23.60;83.20
47921;DHT22;33686;48.770;9.186;2023-06-14T05:59:14;24.30;81.70
47921;DHT22;33686;48.770;9.186;2023-06-14T06:01:40;25.50;80.60
47921;DHT22;33686;48.770;9.186;2023-06-14T06:04:05;25.60;79.70
47921;DHT22;33686;48.770;9.186;2023-06-14T06:06:31;25.00;80.20
47921;DHT22;33686;48.770;9.186;2023-06-14T06:08:57;25.70;79.80
47921;DHT22;33686;48.770;9.186;2023-06-14T06:11:23;24.60;81.60
47921;DHT22;33686;48.770;9.186;2023-06-14T06:13:49;26.10;78.70
47921;DHT22;33686;48.770;9.186;2023-06-14T06:16:15;25.80;77.70
47921;DHT22;33686;48.770;9.186;2023-06-14T06:18:40;25.90;78.40
47921;DHT22;33686;48.770;9.186;2023-06-14T06:21:06;25.70;77.50
47921;DHT22;33686;48.770;9.186;2023-06-14T06:23:31;25.90;77.50
47921;DHT22;33686;48.770;9.186;2023-06-14T06:25:57;25.10;79.10
47921;DHT22;33686;48.770;9.186;2023-06-14T06:28:22;24.50;80.10
47921;DHT22;33686;48.770;9.186;2023-06-14T06:30:48;25.30;79.10
47921;DHT22;33686;48.770;9.186;2023-06-14T06:33:14;26.00;77.90
47921;DHT22;33686;48.770;9.186;2023-06-14T06:35:39;25.80;78.50
47921;DHT22;33686;48.770;9.186;2023-06-14T06:38:05;25.50;79.00
47921;DHT22;33686;48.770;9.186;2023-06-14T06:40:31;25.60;79.10
47921;DHT22;33686;48.770;9.186;2023-06-14T06:42:56;26.40;77.60
47921;DHT22;33686;48.770;9.186;2023-06-14T06:45:26;25.30;79.40
47921;DHT22;33686;48.770;9.186;2023-06-14T06:47:51;25.90;79.40
47921;DHT22;33686;48.770;9.186;2023-06-14T06:50:17;25.70;78.90
47921;DHT22;33686;48.770;9.186;2023-06-14T06:52:43;25.90;79.60
47921;DHT22;33686;48.770;9.186;2023-06-14T06:55:10;25.60;78.80
47921;DHT22;33686;48.770;9.186;2023-06-14T06:57:36;26.30;78.70
47921;DHT22;33686;48.770;9.186;2023-06-14T07:00:02;26.50;77.20
47921;DHT22;33686;48.770;9.186;2023-06-14T07:02:30;26.10;77.10
47921;DHT22;33686;48.770;9.186;2023-06-14T07:04:56;25.90;78.20
47921;DHT22;33686;48.770;9.186;2023-06-14T07:07:21;26.40;77.40
47921;DHT22;33686;48.770;9.186;2023-06-14T07:09:47;26.70;77.20
47921;DHT22;33686;48.770;9.186;2023-06-14T07:12:13;26.40;76.70
47921;DHT22;33686;48.770;9.186;2023-06-14T07:14:38;26.00;77.30
47921;DHT22;33686;48.770;9.186;2023-06-14T07:17:04;25.50;78.00
47921;DHT22;33686;48.770;9.186;2023-06-14T07:19:30;26.60;77.40
47921;DHT22;33686;48.770;9.186;2023-06-14T07:21:56;25.90;77.40
47921;DHT22;33686;48.770;9.186;2023-06-14T07:24:23;26.40;77.40
47921;DHT22;33686;48.770;9.186;2023-06-14T07:26:49;26.80;76.10
47921;DHT22;33686;48.770;9.186;2023-06-14T07:29:14;26.60;77.00
47921;DHT22;33686;48.770;9.186;2023-06-14T07:31:41;27.10;76.30
47921;DHT22;33686;48.770;9.186;2023-06-14T07:34:07;27.10;76.30
47921;DHT22;33686;48.770;9.186;2023-06-14T07:36:32;26.90;76.40
47921;DHT22;33686;48.770;9.186;2023-06-14T07:38:58;27.50;76.20
47921;DHT22;33686;48.770;9.186;2023-06-14T07:41:23;26.40;77.20
47921;DHT22;33686;48.770;9.186;2023-06-14T07:43:49;26.30;77.20
47921;DHT22;33686;48.770;9.186;2023-06-14T07:46:14;26.00;77.20
47921;DHT22;33686;48.770;9.186;2023-06-14T07:48:40;26.00;77.50
47921;DHT22;33686;48.770;9.186;2023-06-14T07:51:06;26.30;77.20
47921;DHT22;33686;48.770;9.186;2023-06-14T07:53:31;26.70;75.70
47921;DHT22;33686;48.770;9.186;2023-06-14T07:55:57;26.80;75.80
47921;DHT22;33686;48.770;9.186;2023-06-14T07:58:22;26.10;76.30
47921;DHT22;33686;48.770;9.186;2023-06-14T08:00:48;26.40;76.70
47921;DHT22;33686;48.770;9.186;2023-06-14T08:03:13;26.10;76.80
47921;DHT22;33686;48.770;9.186;2023-06-14T08:05:39;26.20;76.80
47921;DHT22;33686;48.770;9.186;2023-06-14T08:08:05;26.70;76.30
47921;DHT22;33686;48.770;9.186;2023-06-14T08:10:30;27.30;75.80
47921;DHT22;33686;48.770;9.186;2023-06-14T08:12:56;27.10;75.70
47921;DHT22;33686;48.770;9.186;2023-06-14T08:15:21;27.00;76.30
47921;DHT22;33686;48.770;9.186;2023-06-14T08:17:47;26.50;77.00
47921;DHT22;33686;48.770;9.186;2023-06-14T08:20:13;26.50;76.80
47921;DHT22;33686;48.770;9.186;2023-06-14T08:22:39;27.20;76.60
47921;DHT22;33686;48.770;9.186;2023-06-14T08:25:07;25.70;78.50
47921;DHT22;33686;48.770;9.186;2023-06-14T08:27:33;25.90;79.00
47921;DHT22;33686;48.770;9.186;2023-06-14T08:29:58;25.90;79.10
47921;DHT22;33686;48.770;9.186;2023-06-14T08:32:24;26.70;78.40
47921;DHT22;33686;48.770;9.186;2023-06-14T08:34:49;28.50;75.80
47921;DHT22;33686;48.770;9.186;2023-06-14T08:37:15;27.30;77.20
47921;DHT22;33686;48.770;9.186;2023-06-14T08:39:41;27.50;77.20
47921;DHT22;33686;48.770;9.186;2023-06-14T08:42:07;27.80;76.50
47921;DHT22;33686;48.770;9.186;2023-06-14T08:44:33;27.10;77.50
47921;DHT22;33686;48.770;9.186;2023-06-14T08:46:59;27.60;77.20
47921;DHT22;33686;48.770;9.186;2023-06-14T08:49:25;27.30;77.60
47921;DHT22;33686;48.770;9.186;2023-06-14T08:51:57;26.60;78.80
47921;DHT22;33686;48.770;9.186;2023-06-14T08:54:23;27.40;77.70
47921;DHT22;33686;48.770;9.186;2023-06-14T08:56:49;26.60;78.00
47921;DHT22;33686;48.770;9.186;2023-06-14T08:59:17;26.90;78.50
47921;DHT22;33686;48.770;9.186;2023-06-14T09:01:43;27.40;78.10
47921;DHT22;33686;48.770;9.186;2023-06-14T09:04:10;28.50;75.20
47921;DHT22;33686;48.770;9.186;2023-06-14T09:06:36;28.00;75.80
47921;DHT22;33686;48.770;9.186;2023-06-14T09:09:02;27.30;76.70
47921;DHT22;33686;48.770;9.186;2023-06-14T09:11:29;27.80;75.30
47921;DHT22;33686;48.770;9.186;2023-06-14T09:13:55;27.30;75.80
47921;DHT22;33686;48.770;9.186;2023-06-14T09:16:21;27.20;76.30
47921;DHT22;33686;48.770;9.186;2023-06-14T09:18:46;26.90;77.70
47921;DHT22;33686;48.770;9.186;2023-06-14T09:21:15;27.10;76.60
47921;DHT22;33686;48.770;9.186;2023-06-14T09:23:42;26.80;76.80
47921;DHT22;33686;48.770;9.186;2023-06-14T09:26:11;26.60;77.00
47921;DHT22;33686;48.770;9.186;2023-06-14T09:28:41;27.30;75.90
47921;DHT22;33686;48.770;9.186;2023-06-14T09:31:07;27.20;74.50
47921;DHT22;33686;48.770;9.186;2023-06-14T09:33:33;26.80;76.40
47921;DHT22;33686;48.770;9.186;2023-06-14T09:35:59;26.80;76.10
47921;DHT22;33686;48.770;9.186;2023-06-14T09:38:25;26.90;76.80
47921;DHT22;33686;48.770;9.186;2023-06-14T09:40:51;27.40;76.10
47921;DHT22;33686;48.770;9.186;2023-06-14T09:43:16;27.60;75.60
47921;DHT22;33686;48.770;9.186;2023-06-14T09:45:43;27.10;77.20
47921;DHT22;33686;48.770;9.186;2023-06-14T09:48:11;26.60;77.90
47921;DHT22;33686;48.770;9.186;2023-06-14T09:50:37;26.90;77.60
47921;DHT22;33686;48.770;9.186;2023-06-14T09:53:05;26.90;77.60
47921;DHT22;33686;48.770;9.186;2023-06-14T09:55:33;26.30;76.60
47921;DHT22;33686;48.770;9.186;2023-06-14T09:58:00;26.20;74.80
47921;DHT22;33686;48.770;9.186;2023-06-14T10:00:29;26.40;75.80
47921;DHT22;33686;48.770;9.186;2023-06-14T10:02:57;26.50;75.10
47921;DHT22;33686;48.770;9.186;2023-06-14T10:05:26;26.40;75.20
47921;DHT22;33686;48.770;9.186;2023-06-14T10:07:59;26.40;76.20
47921;DHT22;33686;48.770;9.186;2023-06-14T10:10:25;25.20;77.70
47921;DHT22;33686;48.770;9.186;2023-06-14T10:12:51;25.00;78.40
47921;DHT22;33686;48.770;9.186;2023-06-14T10:15:18;24.60;77.60
47921;DHT22;33686;48.770;9.186;2023-06-14T10:17:53;24.80;78.90
47921;DHT22;33686;48.770;9.186;2023-06-14T10:23:00;24.70;75.70
47921;DHT22;33686;48.770;9.186;2023-06-14T10:25:27;24.80;75.20
47921;DHT22;33686;48.770;9.186;2023-06-14T10:28:03;24.40;75.90
47921;DHT22;33686;48.770;9.186;2023-06-14T10:30:39;24.70;77.40
47921;DHT22;33686;48.770;9.186;2023-06-14T10:33:05;24.50;76.80
47921;DHT22;33686;48.770;9.186;2023-06-14T10:35:35;24.60;77.20
47921;DHT22;33686;48.770;9.186;2023-06-14T10:38:11;24.40;78.40
47921;DHT22;33686;48.770;9.186;2023-06-14T10:40:37;24.20;79.70
47921;DHT22;33686;48.770;9.186;2023-06-14T10:43:22;24.10;79.70
47921;DHT22;33686;48.770;9.186;2023-06-14T10:48:36;24.30;79.60
47921;DHT22;33686;48.770;9.186;2023-06-14T10:51:05;24.10;79.40
47921;DHT22;33686;48.770;9.186;2023-06-14T10:53:39;24.30;78.50
47921;DHT22;33686;48.770;9.186;2023-06-14T10:56:08;23.90;78.80
47921;DHT22;33686;48.770;9.186;2023-06-14T10:58:34;24.00;78.40
47921;DHT22;33686;48.770;9.186;2023-06-14T11:00:59;24.10;79.30
47921;DHT22;33686;48.770;9.186;2023-06-14T11:03:31;24.20;77.80
47921;DHT22;33686;48.770;9.186;2023-06-14T11:06:01;24.40;77.90
47921;DHT22;33686;48.770;9.186;2023-06-14T11:11:07;24.20;77.40
47921;DHT22;33686;48.770;9.186;2023-06-14T11:13:33;24.40;77.50
47921;DHT22;33686;48.770;9.186;2023-06-14T11:15:59;24.20;77.50
47921;DHT22;33686;48.770;9.186;2023-06-14T11:18:24;24.10;78.00
47921;DHT22;33686;48.770;9.186;2023-06-14T11:20:50;24.20;77.90
47921;DHT22;33686;48.770;9.186;2023-06-14T11:23:16;24.00;77.20
47921;DHT22;33686;48.770;9.186;2023-06-14T11:25:41;24.00;76.40
47921;DHT22;33686;48.770;9.186;2023-06-14T11:28:07;24.10;76.70
47921;DHT22;33686;48.770;9.186;2023-06-14T11:30:33;24.30;76.70
47921;DHT22;33686;48.770;9.186;2023-06-14T11:32:58;24.30;76.60
47921;DHT22;33686;48.770;9.186;2023-06-14T11:35:24;23.50;76.90
47921;DHT22;33686;48.770;9.186;2023-06-14T11:37:52;23.10;77.60
47921;DHT22;33686;48.770;9.186;2023-06-14T11:40:19;23.40;77.30
47921;DHT22;33686;48.770;9.186;2023-06-14T11:42:44;23.80;76.80
47921;DHT22;33686;48.770;9.186;2023-06-14T11:45:10;24.30;76.40
47921;DHT22;33686;48.770;9.186;2023-06-14T11:47:37;23.90;73.90
47921;DHT22;33686;48.770;9.186;2023-06-14T11:50:03;23.70;75.50
47921;DHT22;33686;48.770;9.186;2023-06-14T11:52:30;24.30;75.60
47921;DHT22;33686;48.770;9.186;2023-06-14T11:54:56;24.10;75.50
47921;DHT22;33686;48.770;9.186;2023-06-14T11:57:21;24.50;74.10
47921;DHT22;33686;48.770;9.186;2023-06-14T11:59:47;24.40;74.30
47921;DHT22;33686;48.770;9.186;2023-06-14T12:02:17;24.30;74.80
47921;DHT22;33686;48.770;9.186;2023-06-14T12:04:43;24.50;74.90
47921;DHT22;33686;48.770;9.186;2023-06-14T12:07:09;24.30;74.10
47921;DHT22;33686;48.770;9.186;2023-06-14T12:09:36;24.70;74.20
47921;DHT22;33686;48.770;9.186;2023-06-14T12:12:02;25.20;74.00
47921;DHT22;33686;48.770;9.186;2023-06-14T12:14:29;25.50;74.00
47921;DHT22;33686;48.770;9.186;2023-06-14T12:17:03;25.40;74.20
47921;DHT22;33686;48.770;9.186;2023-06-14T12:19:28;25.60;74.10
47921;DHT22;33686;48.770;9.186;2023-06-14T12:21:54;25.70;74.90
47921;DHT22;33686;48.770;9.186;2023-06-14T12:24:19;25.10;73.60
47921;DHT22;33686;48.770;9.186;2023-06-14T12:26:45;24.40;74.20
47921;DHT22;33686;48.770;9.186;2023-06-14T12:29:12;24.20;75.10
47921;DHT22;33686;48.770;9.186;2023-06-14T12:31:37;23.90;75.50
47921;DHT22;33686;48.770;9.186;2023-06-14T12:34:03;23.70;75.30
47921;DHT22;33686;48.770;9.186;2023-06-14T12:36:29;23.50;75.40
47921;DHT22;33686;48.770;9.186;2023-06-14T12:38:54;23.70;75.80
47921;DHT22;33686;48.770;9.186;2023-06-14T12:41:20;23.70;75.10
47921;DHT22;33686;48.770;9.186;2023-06-14T12:43:49;23.50;75.40
47921;DHT22;33686;48.770;9.186;2023-06-14T12:46:15;23.40;75.50
47921;DHT22;33686;48.770;9.186;2023-06-14T12:48:40;23.60;75.30
47921;DHT22;33686;48.770;9.186;2023-06-14T12:51:06;23.80;76.50
47921;DHT22;33686;48.770;9.186;2023-06-14T12:53:31;23.80;76.90
47921;DHT22;33686;48.770;9.186;2023-06-14T12:55:57;24.10;76.60
47921;DHT22;33686;48.770;9.186;2023-06-14T12:58:22;24.60;76.30
47921;DHT22;33686;48.770;9.186;2023-06-14T13:00:49;24.40;75.80
47921;DHT22;33686;48.770;9.186;2023-06-14T13:03:15;24.10;76.00
47921;DHT22;33686;48.770;9.186;2023-06-14T13:05:40;24.20;76.20
47921;DHT22;33686;48.770;9.186;2023-06-14T13:08:07;23.90;75.60
47921;DHT22;33686;48.770;9.186;2023-06-14T13:10:33;23.80;76.50
47921;DHT22;33686;48.770;9.186;2023-06-14T13:12:59;24.00;75.40
47921;DHT22;33686;48.770;9.186;2023-06-14T13:15:25;24.00;75.50
47921;DHT22;33686;48.770;9.186;2023-06-14T13:17:51;24.10;75.50
47921;DHT22;33686;48.770;9.186;2023-06-14T13:20:16;24.40;75.20
47921;DHT22;33686;48.770;9.186;2023-06-14T13:22:42;24.50;75.20
47921;DHT22;33686;48.770;9.186;2023-06-14T13:25:07;24.40;75.10
47921;DHT22;33686;48.770;9.186;2023-06-14T13:27:33;24.40;75.40
47921;DHT22;33686;48.770;9.186;2023-06-14T13:29:59;24.30;75.50
47921;DHT22;33686;48.770;9.186;2023-06-14T13:32:24;24.50;75.10
47921;DHT22;33686;48.770;9.186;2023-06-14T13:34:50;24.70;74.70
47921;DHT22;33686;48.770;9.186;2023-06-14T13:37:15;24.70;75.50
47921;DHT22;33686;48.770;9.186;2023-06-14T13:39:41;24.60;76.50
47921;DHT22;33686;48.770;9.186;2023-06-14T13:42:07;24.40;76.20
47921;DHT22;33686;48.770;9.186;2023-06-14T13:44:32;24.10;77.20
47921;DHT22;33686;48.770;9.186;2023-06-14T13:46:58;24.20;76.40
47921;DHT22;33686;48.770;9.186;2023-06-14T13:49:23;23.80;76.70
47921;DHT22;33686;48.770;9.186;2023-06-14T13:51:49;24.00;76.90
47921;DHT22;33686;48.770;9.186;2023-06-14T13:54:14;24.30;76.10
47921;DHT22;33686;48.770;9.186;2023-06-14T13:56:40;24.30;76.20
47921;DHT22;33686;48.770;9.186;2023-06-14T13:59:06;24.40;76.20
47921;DHT22;33686;48.770;9.186;2023-06-14T14:01:31;24.20;75.70
47921;DHT22;33686;48.770;9.186;2023-06-14T14:03:57;24.50;76.00
47921;DHT22;33686;48.770;9.186;2023-06-14T14:06:24;24.50;75.70
47921;DHT22;33686;48.770;9.186;2023-06-14T14:08:49;24.30;76.00
47921;DHT22;33686;48.770;9.186;2023-06-14T14:11:15;24.20;76.00
47921;DHT22;33686;48.770;9.186;2023-06-14T14:13:41;24.50;75.90
47921;DHT22;33686;48.770;9.186;2023-06-14T14:16:07;24.30;76.20
47921;DHT22;33686;48.770;9.186;2023-06-14T14:18:33;24.10;76.30
47921;DHT22;33686;48.770;9.186;2023-06-14T14:20:58;24.20;76.50
47921;DHT22;33686;48.770;9.186;2023-06-14T14:23:25;24.20;76.80
47921;DHT22;33686;48.770;9.186;2023-06-14T14:25:51;24.30;77.00
47921;DHT22;33686;48.770;9.186;2023-06-14T14:28:17;24.20;77.00
47921;DHT22;33686;48.770;9.186;2023-06-14T14:30:44;24.40;77.40
47921;DHT22;33686;48.770;9.186;2023-06-14T14:33:11;24.10;78.00
47921;DHT22;33686;48.770;9.186;2023-06-14T14:35:44;24.00;78.40
47921;DHT22;33686;48.770;9.186;2023-06-14T14:38:13;24.40;78.00
47921;DHT22;33686;48.770;9.186;2023-06-14T14:40:39;24.40;77.50
47921;DHT22;33686;48.770;9.186;2023-06-14T14:43:05;24.60;76.80
47921;DHT22;33686;48.770;9.186;2023-06-14T14:45:31;24.50;77.10
47921;DHT22;33686;48.770;9.186;2023-06-14T14:47:57;24.40;77.30
47921;DHT22;33686;48.770;9.186;2023-06-14T14:50:22;24.20;76.90
47921;DHT22;33686;48.770;9.186;2023-06-14T14:52:48;24.50;77.00
47921;DHT22;33686;48.770;9.186;2023-06-14T14:55:13;24.40;77.00
47921;DHT22;33686;48.770;9.186;2023-06-14T14:57:39;24.50;76.80
47921;DHT22;33686;48.770;9.186;2023-06-14T15:00:05;24.50;76.30
47921;DHT22;33686;48.770;9.186;2023-06-14T15:02:31;24.70;76.40
47921;DHT22;33686;48.770;9.186;2023-06-14T15:04:57;24.70;76.90
47921;DHT22;33686;48.770;9.186;2023-06-14T15:07:26;24.80;76.40
47921;DHT22;33686;48.770;9.186;2023-06-14T15:09:52;24.60;76.00
47921;DHT22;33686;48.770;9.186;2023-06-14T15:12:17;24.70;75.70
47921;DHT22;33686;48.770;9.186;2023-06-14T15:14:45;24.80;76.00
47921;DHT22;33686;48.770;9.186;2023-06-14T15:17:10;25.00;75.80
47921;DHT22;33686;48.770;9.186;2023-06-14T15:19:36;25.00;76.50
47921;DHT22;33686;48.770;9.186;2023-06-14T15:22:01;24.60;76.90
47921;DHT22;33686;48.770;9.186;2023-06-14T15:24:27;24.50;77.10
47921;DHT22;33686;48.770;9.186;2023-06-14T15:26:53;24.50;77.00
47921;DHT22;33686;48.770;9.186;2023-06-14T15:29:19;24.50;77.30
47921;DHT22;33686;48.770;9.186;2023-06-14T15:31:44;24.70;77.30
47921;DHT22;33686;48.770;9.186;2023-06-14T15:34:10;24.70;77.10
47921;DHT22;33686;48.770;9.186;2023-06-14T15:36:35;24.50;76.70
47921;DHT22;33686;48.770;9.186;2023-06-14T15:39:01;24.70;76.80
47921;DHT22;33686;48.770;9.186;2023-06-14T15:41:27;24.50;77.20
47921;DHT22;33686;48.770;9.186;2023-06-14T15:43:52;24.50;77.00
47921;DHT22;33686;48.770;9.186;2023-06-14T15:46:19;24.40;77.40
47921;DHT22;33686;48.770;9.186;2023-06-14T15:48:46;24.40;77.40
47921;DHT22;33686;48.770;9.186;2023-06-14T15:51:11;24.30;77.40
47921;DHT22;33686;48.770;9.186;2023-06-14T15:53:37;24.10;77.90
47921;DHT22;33686;48.770;9.186;2023-06-14T15:56:02;24.30;77.70
47921;DHT22;33686;48.770;9.186;2023-06-14T15:58:28;24.00;77.30
47921;DHT22;33686;48.770;9.186;2023-06-14T16:00:53;23.90;77.80
47921;DHT22;33686;48.770;9.186;2023-06-14T16:03:19;23.70;77.80
47921;DHT22;33686;48.770;9.186;2023-06-14T16:05:45;23.60;77.80
47921;DHT22;33686;48.770;9.186;2023-06-14T16:08:10;23.50;78.00
47921;DHT22;33686;48.770;9.186;2023-06-14T16:10:36;23.40;78.10
47921;DHT22;33686;48.770;9.186;2023-06-14T16:13:03;23.50;77.60
47921;DHT22;33686;48.770;9.186;2023-06-14T16:15:29;23.80;77.30
47921;DHT22;33686;48.770;9.186;2023-06-14T16:17:54;24.00;77.20
47921;DHT22;33686;48.770;9.186;2023-06-14T16:20:20;24.10;76.80
47921;DHT22;33686;48.770;9.186;2023-06-14T16:22:45;24.20;76.40
47921;DHT22;33686;48.770;9.186;2023-06-14T16:25:11;24.20;76.20
47921;DHT22;33686;48.770;9.186;2023-06-14T16:27:37;24.30;76.00
47921;DHT22;33686;48.770;9.186;2023-06-14T16:30:02;24.40;76.40
47921;DHT22;33686;48.770;9.186;2023-06-14T16:32:28;24.10;76.40
47921;DHT22;33686;48.770;9.186;2023-06-14T16:34:54;23.90;77.40
47921;DHT22;33686;48.770;9.186;2023-06-14T16:37:19;23.70;77.80
47921;DHT22;33686;48.770;9.186;2023-06-14T16:39:46;23.70;77.70
47921;DHT22;33686;48.770;9.186;2023-06-14T16:42:11;23.80;78.00
47921;DHT22;33686;48.770;9.186;2023-06-14T16:44:37;23.90;78.00
47921;DHT22;33686;48.770;9.186;2023-06-14T16:47:03;23.70;78.40
47921;DHT22;33686;48.770;9.186;2023-06-14T16:49:29;23.50;78.60
47921;DHT22;33686;48.770;9.186;2023-06-14T16:51:54;23.60;79.00
47921;DHT22;33686;48.770;9.186;2023-06-14T16:54:20;23.60;78.80
47921;DHT22;33686;48.770;9.186;2023-06-14T16:56:45;23.70;78.60
47921;DHT22;33686;48.770;9.186;2023-06-14T16:59:11;23.80;78.60
47921;DHT22;33686;48.770;9.186;2023-06-14T17:01:37;23.90;78.60
47921;DHT22;33686;48.770;9.186;2023-06-14T17:04:03;23.90;78.40
47921;DHT22;33686;48.770;9.186;2023-06-14T17:06:28;23.80;78.80
47921;DHT22;33686;48.770;9.186;2023-06-14T17:08:54;23.80;78.90
47921;DHT22;33686;48.770;9.186;2023-06-14T17:11:20;23.70;78.60
47921;DHT22;33686;48.770;9.186;2023-06-14T17:13:47;23.70;78.10
47921;DHT22;33686;48.770;9.186;2023-06-14T17:16:13;23.80;78.00
47921;DHT22;33686;48.770;9.186;2023-06-14T17:18:39;23.70;79.10
47921;DHT22;33686;48.770;9.186;2023-06-14T17:21:04;23.60;79.60
47921;DHT22;33686;48.770;9.186;2023-06-14T17:23:30;23.60;80.00
47921;DHT22;33686;48.770;9.186;2023-06-14T17:25:55;23.70;79.80
47921;DHT22;33686;48.770;9.186;2023-06-14T17:28:21;23.60;79.90
47921;DHT22;33686;48.770;9.186;2023-06-14T17:30:46;23.50;79.90
47921;DHT22;33686;48.770;9.186;2023-06-14T17:33:12;23.50;80.70
47921;DHT22;33686;48.770;9.186;2023-06-14T17:35:38;23.50;80.70
47921;DHT22;33686;48.770;9.186;2023-06-14T17:38:03;23.40;80.90
47921;DHT22;33686;48.770;9.186;2023-06-14T17:40:29;23.50;81.00
47921;DHT22;33686;48.770;9.186;2023-06-14T17:42:55;23.50;81.20
47921;DHT22;33686;48.770;9.186;2023-06-14T17:45:20;23.50;80.30
47921;DHT22;33686;48.770;9.186;2023-06-14T17:47:46;23.50;80.00
47921;DHT22;33686;48.770;9.186;2023-06-14T17:50:11;23.30;80.20
47921;DHT22;33686;48.770;9.186;2023-06-14T17:52:37;23.20;80.00
47921;DHT22;33686;48.770;9.186;2023-06-14T17:55:03;23.20;80.40
47921;DHT22;33686;48.770;9.186;2023-06-14T17:57:28;23.20;80.10
47921;DHT22;33686;48.770;9.186;2023-06-14T17:59:54;23.10;80.20
47921;DHT22;33686;48.770;9.186;2023-06-14T18:02:23;23.10;80.30
47921;DHT22;33686;48.770;9.186;2023-06-14T18:04:48;23.10;80.30
47921;DHT22;33686;48.770;9.186;2023-06-14T18:07:14;23.10;79.60
47921;DHT22;33686;48.770;9.186;2023-06-14T18:09:39;23.10;80.20
47921;DHT22;33686;48.770;9.186;2023-06-14T18:12:05;23.10;80.40
47921;DHT22;33686;48.770;9.186;2023-06-14T18:14:30;23.10;80.50
47921;DHT22;33686;48.770;9.186;2023-06-14T18:16:56;23.00;81.10
47921;DHT22;33686;48.770;9.186;2023-06-14T18:19:21;22.90;81.90
47921;DHT22;33686;48.770;9.186;2023-06-14T18:21:52;22.90;82.30
47921;DHT22;33686;48.770;9.186;2023-06-14T18:24:17;22.80;82.60
47921;DHT22;33686;48.770;9.186;2023-06-14T18:26:43;22.70;83.10
47921;DHT22;33686;48.770;9.186;2023-06-14T18:29:08;22.60;83.40
47921;DHT22;33686;48.770;9.186;2023-06-14T18:31:34;22.60;83.70
47921;DHT22;33686;48.770;9.186;2023-06-14T18:33:59;22.60;83.90
47921;DHT22;33686;48.770;9.186;2023-06-14T18:36:25;22.50;83.80
47921;DHT22;33686;48.770;9.186;2023-06-14T18:38:50;22.50;84.00
47921;DHT22;33686;48.770;9.186;2023-06-14T18:41:16;22.50;84.20
47921;DHT22;33686;48.770;9.186;2023-06-14T18:43:41;22.40;84.20
47921;DHT22;33686;48.770;9.186;2023-06-14T18:46:08;22.40;84.50
47921;DHT22;33686;48.770;9.186;2023-06-14T18:48:34;22.30;84.30
47921;DHT22;33686;48.770;9.186;2023-06-14T18:51:00;22.30;84.90
47921;DHT22;33686;48.770;9.186;2023-06-14T18:53:25;22.30;85.10
47921;DHT22;33686;48.770;9.186;2023-06-14T18:55:53;22.20;85.50
47921;DHT22;33686;48.770;9.186;2023-06-14T18:58:19;22.10;85.50
47921;DHT22;33686;48.770;9.186;2023-06-14T19:00:45;22.10;85.70
47921;DHT22;33686;48.770;9.186;2023-06-14T19:03:11;22.00;85.50
47921;DHT22;33686;48.770;9.186;2023-06-14T19:05:37;22.00;85.60
47921;DHT22;33686;48.770;9.186;2023-06-14T19:08:03;21.90;85.60
47921;DHT22;33686;48.770;9.186;2023-06-14T19:10:28;21.90;85.80
47921;DHT22;33686;48.770;9.186;2023-06-14T19:12:54;21.90;86.00
47921;DHT22;33686;48.770;9.186;2023-06-14T19:15:19;21.80;86.10
47921;DHT22;33686;48.770;9.186;2023-06-14T19:17:55;21.80;86.40
47921;DHT22;33686;48.770;9.186;2023-06-14T19:20:21;21.70;86.60
47921;DHT22;33686;48.770;9.186;2023-06-14T19:22:46;21.70;86.90
47921;DHT22;33686;48.770;9.186;2023-06-14T19:25:12;21.60;87.50
47921;DHT22;33686;48.770;9.186;2023-06-14T19:27:37;21.50;88.00
47921;DHT22;33686;48.770;9.186;2023-06-14T19:30:03;21.50;87.80
47921;DHT22;33686;48.770;9.186;2023-06-14T19:32:29;21.40;88.20
47921;DHT22;33686;48.770;9.186;2023-06-14T19:34:55;21.40;88.50
47921;DHT22;33686;48.770;9.186;2023-06-14T19:37:20;21.30;88.80
47921;DHT22;33686;48.770;9.186;2023-06-14T19:39:46;21.20;89.00
47921;DHT22;33686;48.770;9.186;2023-06-14T19:42:11;21.10;89.80
47921;DHT22;33686;48.770;9.186;2023-06-14T19:44:37;20.90;90.10